Time;durP1;ratioP1;P1;durP2;ratioP2;P2;SDS_P1;SDS_P2;PMS_P1;PMS_P2;Temp;Humidity;BMP_temperature;BMP_pressure;BME280_temperature;BME280_humidity;BME280_pressure;Samples;Min_cycle;Max_cycle;Signal;HPM_P1;HPM_P2
2023/08/28 00:01:22;;;;;;;2.00;1.10;;;17.60;99.90;;;;;;5068022;28;20737;-30
2023/08/28 00:03:51;;;;;;;1.90;1.30;;;17.50;99.90;;;;;;5055891;28;20398;-31
2023/08/28 00:06:21;;;;;;;1.40;1.23;;;17.50;99.90;;;;;;5048343;28;20219;-30
2023/08/28 00:08:50;;;;;;;2.20;1.20;;;17.50;99.90;;;;;;5065849;28;20202;-31
2023/08/28 00:11:17;;;;;;;2.45;1.40;;;17.50;99.90;;;;;;5047890;28;20262;-31
2023/08/28 00:13:44;;;;;;;4.33;1.70;;;17.40;99.90;;;;;;5065587;28;20215;-31
2023/08/28 00:16:11;;;;;;;1.20;1.10;;;17.40;99.90;;;;;;5065548;28;20235;-31
2023/08/28 00:18:42;;;;;;;2.10;1.30;;;17.40;99.90;;;;;;5065734;28;20203;-31
2023/08/28 00:21:11;;;;;;;1.95;1.40;;;17.40;99.90;;;;;;5031212;28;20215;-31
2023/08/28 00:23:39;;;;;;;4.65;1.75;;;17.40;99.90;;;;;;5031288;28;20310;-31
2023/08/28 00:26:08;;;;;;;2.23;1.27;;;17.30;99.90;;;;;;5062425;28;20225;-31
2023/08/28 00:28:39;;;;;;;2.10;1.10;;;17.30;99.90;;;;;;5086031;28;20282;-31
2023/08/28 00:31:07;;;;;;;1.83;1.15;;;17.30;99.90;;;;;;5085981;28;20194;-23
2023/08/28 00:33:34;;;;;;;2.37;1.17;;;17.30;99.90;;;;;;5085671;28;20306;-31
2023/08/28 00:36:06;;;;;;;3.17;1.40;;;17.30;99.90;;;;;;5066710;28;20214;-31
2023/08/28 00:38:35;;;;;;;1.80;1.30;;;17.20;99.90;;;;;;5086225;28;20341;-31
2023/08/28 00:41:03;;;;;;;3.33;1.47;;;17.20;99.90;;;;;;5067729;28;20203;-31
2023/08/28 00:43:30;;;;;;;2.23;1.23;;;17.20;99.90;;;;;;5086173;28;20219;-31
2023/08/28 00:45:59;;;;;;;3.08;1.35;;;17.10;99.90;;;;;;5067466;28;20245;-31
2023/08/28 00:48:29;;;;;;;2.70;1.43;;;17.10;99.90;;;;;;5067592;28;20541;-31
2023/08/28 00:50:58;;;;;;;2.67;1.15;;;17.10;99.90;;;;;;5050255;28;20195;-31
2023/08/28 00:53:32;;;;;;;1.83;1.37;;;17.10;99.90;;;;;;5065873;28;20597;-31
2023/08/28 00:55:59;;;;;;;1.50;1.10;;;17.10;99.90;;;;;;5086511;28;20320;-31
2023/08/28 00:58:27;;;;;;;1.85;1.35;;;17.00;99.90;;;;;;5075837;28;20278;-31
2023/08/28 01:00:54;;;;;;;1.40;1.30;;;17.00;99.90;;;;;;5063577;28;20281;-31
2023/08/28 01:03:23;;;;;;;3.08;1.30;;;17.00;99.90;;;;;;5069444;28;20317;-31
2023/08/28 01:06:20;;;;;;;2.55;1.23;;;17.00;99.90;;;;;;5026928;28;20224;-31
2023/08/28 01:09:15;;;;;;;2.03;1.00;;;17.00;99.90;;;;;;5045391;28;20266;-31
2023/08/28 01:12:01;;;;;;;2.90;1.05;;;16.90;99.90;;;;;;5046799;28;20371;-31
2023/08/28 01:14:38;;;;;;;1.20;1.00;;;16.90;99.90;;;;;;5047773;28;20596;-24
2023/08/28 01:17:08;;;;;;;3.22;1.50;;;16.90;99.90;;;;;;5045626;28;20658;-24
2023/08/28 01:19:37;;;;;;;2.42;1.77;;;16.90;99.90;;;;;;5044725;28;20196;-24
2023/08/28 01:22:28;;;;;;;2.43;1.40;;;16.90;99.90;;;;;;5047494;28;20220;-24
2023/08/28 01:25:09;;;;;;;1.35;1.20;;;16.80;99.90;;;;;;5050917;28;20204;-24
2023/08/28 01:27:38;;;;;;;2.35;1.40;;;16.80;99.90;;;;;;5050688;28;20204;-24
2023/08/28 01:30:05;;;;;;;2.30;1.20;;;16.80;99.90;;;;;;5048367;28;20596;-24
2023/08/28 01:32:35;;;;;;;2.70;1.40;;;16.80;99.90;;;;;;5069273;28;20303;-24
2023/08/28 01:35:08;;;;;;;2.67;1.37;;;16.80;99.90;;;;;;5068281;28;20614;-24
2023/08/28 01:38:02;;;;;;;3.13;1.50;;;16.80;99.90;;;;;;5050951;28;20210;-24
2023/08/28 01:40:53;;;;;;;2.30;1.53;;;16.70;99.90;;;;;;5059929;28;20617;-24
2023/08/28 01:43:29;;;;;;;1.37;1.20;;;16.60;99.90;;;;;;5050807;28;20287;-24
2023/08/28 01:45:59;;;;;;;1.40;1.30;;;16.70;99.90;;;;;;5087543;28;20234;-24
2023/08/28 01:48:32;;;;;;;4.53;1.47;;;16.60;99.90;;;;;;5089300;28;20302;-24
2023/08/28 01:50:59;;;;;;;1.37;1.10;;;16.60;99.90;;;;;;5087954;28;20205;-24
2023/08/28 01:53:29;;;;;;;5.43;1.30;;;16.60;99.90;;;;;;5054054;28;20206;-24
2023/08/28 01:56:08;;;;;;;1.95;1.45;;;16.60;99.90;;;;;;5088859;28;20207;-24
2023/08/28 01:58:55;;;;;;;3.22;1.40;;;16.60;99.90;;;;;;5070515;28;20264;-23
2023/08/28 02:01:29;;;;;;;1.60;1.50;;;16.60;99.90;;;;;;5088633;28;20219;-24
2023/08/28 02:03:57;;;;;;;1.43;1.30;;;16.50;99.90;;;;;;5049764;28;20292;-24
2023/08/28 02:06:29;;;;;;;2.00;1.50;;;16.50;99.90;;;;;;5068795;28;20261;-23
2023/08/28 02:08:56;;;;;;;3.67;1.53;;;16.50;99.90;;;;;;5068070;28;20781;-24
2023/08/28 02:11:23;;;;;;;3.37;1.93;;;16.40;99.90;;;;;;5068360;28;20215;-24
2023/08/28 02:13:50;;;;;;;1.33;1.20;;;16.50;99.90;;;;;;5067967;28;20224;-24
2023/08/28 02:16:19;;;;;;;2.63;1.60;;;16.50;99.90;;;;;;5050099;28;20548;-24
2023/08/28 02:18:49;;;;;;;2.37;1.30;;;16.40;99.90;;;;;;5033634;28;20214;-23
2023/08/28 02:21:18;;;;;;;1.50;1.30;;;16.40;99.90;;;;;;5049907;28;20234;-23
2023/08/28 02:23:46;;;;;;;2.67;1.30;;;16.40;99.90;;;;;;5049628;28;20215;-25
2023/08/28 02:26:15;;;;;;;2.90;1.20;;;16.30;99.90;;;;;;5049760;28;20207;-24
2023/08/28 02:28:42;;;;;;;1.57;1.40;;;16.30;99.90;;;;;;5033250;28;20239;-24
2023/08/28 02:31:14;;;;;;;2.85;1.50;;;16.30;99.90;;;;;;5033968;28;20677;-24
2023/08/28 02:33:44;;;;;;;1.67;1.30;;;16.30;99.90;;;;;;5067884;28;20273;-24
2023/08/28 02:36:13;;;;;;;2.80;1.43;;;16.30;99.90;;;;;;5068287;28;20199;-24
2023/08/28 02:38:45;;;;;;;2.43;1.60;;;16.30;99.90;;;;;;5068057;28;20764;-24
2023/08/28 02:41:12;;;;;;;1.80;1.20;;;16.30;99.90;;;;;;5068098;28;20192;-24
2023/08/28 02:43:42;;;;;;;2.90;1.40;;;16.30;99.90;;;;;;5067522;28;20224;-23
2023/08/28 02:46:09;;;;;;;1.50;1.40;;;16.20;99.90;;;;;;5048263;28;20232;-24
2023/08/28 02:48:38;;;;;;;3.57;1.80;;;16.20;99.90;;;;;;5047855;28;20239;-24
2023/08/28 02:51:05;;;;;;;6.20;2.13;;;16.20;99.90;;;;;;5046918;28;20303;-24
2023/08/28 02:53:35;;;;;;;3.27;1.90;;;16.20;99.90;;;;;;5029463;28;20280;-24
2023/08/28 02:56:17;;;;;;;1.80;1.70;;;16.20;99.90;;;;;;5013541;28;20204;-23
2023/08/28 02:58:44;;;;;;;2.37;1.97;;;16.20;99.90;;;;;;5047272;28;20245;-24
2023/08/28 03:01:17;;;;;;;2.33;1.40;;;16.20;99.90;;;;;;5047157;28;20782;-24
2023/08/28 03:03:47;;;;;;;3.17;1.60;;;16.10;99.90;;;;;;5009294;28;20225;-24
2023/08/28 03:06:14;;;;;;;1.93;1.20;;;16.10;99.90;;;;;;5009512;28;20231;-24
2023/08/28 03:08:42;;;;;;;2.27;1.20;;;16.10;99.90;;;;;;5009539;28;20259;-23
2023/08/28 03:11:13;;;;;;;2.15;1.40;;;16.10;99.90;;;;;;5010047;28;20236;-24
2023/08/28 03:13:43;;;;;;;3.83;1.30;;;16.10;99.90;;;;;;5027212;28;20995;-23
2023/08/28 03:16:10;;;;;;;2.73;1.40;;;16.10;99.90;;;;;;5027316;28;20199;-24
2023/08/28 03:18:37;;;;;;;1.80;1.60;;;16.00;99.90;;;;;;5009291;28;20291;-23
2023/08/28 03:21:05;;;;;;;1.87;1.40;;;16.10;99.90;;;;;;5007876;28;20288;-24
2023/08/28 03:23:35;;;;;;;4.80;1.83;;;16.00;99.90;;;;;;5009288;28;20204;-24
2023/08/28 03:26:04;;;;;;;1.87;1.30;;;16.00;99.90;;;;;;5009036;28;20209;-24
2023/08/28 03:28:33;;;;;;;3.67;1.90;;;16.00;99.90;;;;;;5009711;28;20297;-24
2023/08/28 03:31:01;;;;;;;2.80;1.97;;;16.00;99.90;;;;;;5026827;28;20631;-24
2023/08/28 03:33:28;;;;;;;4.43;1.63;;;16.00;99.90;;;;;;5027166;28;20231;-24
2023/08/28 03:35:56;;;;;;;2.07;1.40;;;16.00;99.90;;;;;;5008121;28;20236;-31
2023/08/28 03:38:25;;;;;;;2.13;1.70;;;16.00;99.90;;;;;;5026400;28;20201;-31
2023/08/28 03:40:55;;;;;;;2.57;1.60;;;16.00;99.90;;;;;;5026640;28;20204;-30
2023/08/28 03:43:24;;;;;;;1.60;1.47;;;16.00;99.90;;;;;;5026899;28;20201;-30
2023/08/28 03:45:52;;;;;;;2.07;1.83;;;15.90;99.90;;;;;;5043402;28;20235;-31
2023/08/28 03:48:21;;;;;;;2.08;1.60;;;15.90;99.90;;;;;;5066678;28;20676;-31
2023/08/28 03:50:49;;;;;;;2.93;1.90;;;15.90;99.90;;;;;;5065974;28;20210;-30
2023/08/28 03:53:16;;;;;;;4.33;1.93;;;15.90;99.90;;;;;;5066423;28;20218;-24
2023/08/28 03:55:45;;;;;;;3.20;1.70;;;15.90;99.90;;;;;;5066156;28;20227;-24
2023/08/28 03:58:13;;;;;;;1.93;1.47;;;15.90;99.90;;;;;;5066029;28;20581;-24
2023/08/28 04:00:44;;;;;;;2.27;1.83;;;15.90;99.90;;;;;;5066270;28;20805;-30
2023/08/28 04:03:14;;;;;;;2.43;1.80;;;15.90;99.90;;;;;;5050226;28;20205;-31
2023/08/28 04:05:44;;;;;;;2.50;1.67;;;15.90;99.90;;;;;;5046438;28;20258;-31
2023/08/28 04:08:14;;;;;;;4.77;1.70;;;15.90;99.90;;;;;;5066066;28;20726;-24
2023/08/28 04:10:46;;;;;;;2.53;1.87;;;15.90;99.90;;;;;;5065757;28;20233;-24
2023/08/28 04:13:21;;;;;;;2.75;2.10;;;15.90;99.90;;;;;;5048631;28;20207;-24
2023/08/28 04:15:52;;;;;;;4.57;2.50;;;15.90;99.90;;;;;;5066061;28;20683;-24
2023/08/28 04:18:19;;;;;;;4.47;2.73;;;15.90;99.90;;;;;;5048141;28;20549;-24
2023/08/28 04:20:51;;;;;;;4.82;2.20;;;15.80;99.90;;;;;;5047230;28;20199;-23
2023/08/28 04:23:21;;;;;;;4.30;2.43;;;15.90;99.90;;;;;;5064828;28;20210;-24
2023/08/28 04:25:49;;;;;;;4.43;2.67;;;15.90;99.90;;;;;;5065706;28;20207;-24
2023/08/28 04:28:19;;;;;;;3.67;2.43;;;15.90;99.90;;;;;;5048100;28;20233;-24
2023/08/28 04:30:49;;;;;;;3.23;2.10;;;15.90;99.90;;;;;;5048044;28;20294;-23
2023/08/28 04:33:16;;;;;;;3.60;2.40;;;15.90;99.90;;;;;;5064047;28;20215;-24
2023/08/28 04:35:46;;;;;;;5.33;2.17;;;15.90;99.90;;;;;;5065504;28;20219;-23
2023/08/28 04:38:15;;;;;;;2.25;1.92;;;15.90;99.90;;;;;;5065565;28;20192;-23
2023/08/28 04:40:44;;;;;;;4.57;2.30;;;15.90;99.90;;;;;;5047376;28;21081;-24
2023/08/28 04:43:18;;;;;;;5.00;2.50;;;15.90;99.90;;;;;;5065774;28;20220;-23
2023/08/28 04:45:50;;;;;;;3.53;2.47;;;15.90;99.90;;;;;;5047302;28;20299;-24
2023/08/28 04:48:18;;;;;;;4.17;2.37;;;15.90;99.90;;;;;;5065876;28;20225;-23
2023/08/28 04:50:46;;;;;;;4.43;2.40;;;16.00;99.90;;;;;;5046855;28;20214;-24
2023/08/28 04:53:13;;;;;;;7.07;3.30;;;16.00;99.90;;;;;;5047657;28;20622;-30
2023/08/28 04:55:41;;;;;;;4.47;2.90;;;16.00;99.90;;;;;;5049837;28;20223;-30
2023/08/28 04:58:08;;;;;;;7.30;3.47;;;15.90;99.90;;;;;;5035300;28;20210;-31
2023/08/28 05:00:38;;;;;;;6.97;3.20;;;15.90;99.90;;;;;;5054368;28;20525;-31
2023/08/28 05:03:08;;;;;;;4.13;2.90;;;16.00;99.90;;;;;;5060566;28;20201;-30
2023/08/28 05:05:40;;;;;;;5.27;3.17;;;16.00;99.90;;;;;;5043788;28;20199;-30
2023/08/28 05:08:12;;;;;;;7.70;3.27;;;16.00;99.90;;;;;;5032846;28;20215;-31
2023/08/28 05:10:41;;;;;;;5.97;3.00;;;16.00;99.90;;;;;;5031489;28;20230;-31
2023/08/28 05:13:08;;;;;;;6.67;3.20;;;16.00;99.90;;;;;;5049399;28;20676;-31
2023/08/28 05:15:40;;;;;;;5.90;3.40;;;16.00;99.90;;;;;;5050230;28;20260;-31
2023/08/28 05:18:11;;;;;;;7.67;3.60;;;16.00;99.90;;;;;;5047313;28;20866;-30
2023/08/28 05:20:40;;;;;;;7.60;3.43;;;16.10;99.90;;;;;;5041527;28;20203;-30
2023/08/28 05:23:12;;;;;;;6.43;3.30;;;16.10;99.90;;;;;;5072208;28;20202;-30
2023/08/28 05:25:39;;;;;;;6.73;3.63;;;16.00;99.90;;;;;;5041279;28;20586;-30
2023/08/28 05:28:06;;;;;;;6.90;3.47;;;16.00;99.90;;;;;;5033245;28;20215;-30
2023/08/28 05:30:36;;;;;;;4.77;3.00;;;16.10;99.90;;;;;;5062458;28;20287;-30
2023/08/28 05:33:03;;;;;;;5.33;3.33;;;16.10;99.90;;;;;;5039455;28;21929;-30
2023/08/28 05:35:34;;;;;;;6.90;3.80;;;16.10;99.90;;;;;;5050680;28;20251;-30
2023/08/28 05:38:01;;;;;;;8.70;3.67;;;16.10;99.90;;;;;;5050078;28;20204;-31
2023/08/28 05:40:28;;;;;;;7.77;3.63;;;16.10;99.90;;;;;;5044320;28;20547;-30
2023/08/28 05:42:58;;;;;;;6.77;3.37;;;16.20;99.90;;;;;;5066918;28;20218;-30
2023/08/28 05:45:27;;;;;;;6.23;3.63;;;16.20;99.90;;;;;;5043740;28;20781;-30
2023/08/28 05:47:54;;;;;;;4.90;3.47;;;16.20;99.90;;;;;;5069736;28;20218;-30
2023/08/28 05:50:24;;;;;;;5.77;3.37;;;16.20;99.90;;;;;;5049958;28;20222;-30
2023/08/28 05:52:51;;;;;;;6.87;4.10;;;16.20;99.90;;;;;;5068074;28;20736;-30
2023/08/28 05:55:23;;;;;;;6.83;3.50;;;16.30;99.90;;;;;;5059632;28;20219;-31
2023/08/28 05:57:53;;;;;;;8.00;3.40;;;16.30;99.90;;;;;;5049899;28;20622;-30
2023/08/28 06:00:22;;;;;;;6.17;3.40;;;16.30;99.90;;;;;;5034222;28;20578;-30
2023/08/28 06:02:51;;;;;;;7.50;3.50;;;16.30;99.90;;;;;;5045005;28;20662;-30
2023/08/28 06:05:19;;;;;;;6.47;3.60;;;16.30;99.90;;;;;;5059374;28;20697;-30
2023/08/28 06:07:48;;;;;;;5.97;3.20;;;16.40;99.90;;;;;;5068322;28;20700;-31
2023/08/28 06:10:19;;;;;;;6.00;3.37;;;16.40;99.90;;;;;;5067550;28;20287;-30
2023/08/28 06:12:49;;;;;;;7.70;3.67;;;16.40;99.90;;;;;;5058566;28;20682;-30
2023/08/28 06:15:19;;;;;;;7.67;3.30;;;16.40;99.90;;;;;;5041894;28;20215;-32
2023/08/28 06:17:51;;;;;;;6.13;3.63;;;16.40;99.90;;;;;;5035942;28;20207;-30
2023/08/28 06:20:22;;;;;;;12.83;3.43;;;16.50;99.90;;;;;;5043591;28;20246;-30
2023/08/28 06:22:52;;;;;;;7.63;3.90;;;16.50;99.90;;;;;;5050769;28;20208;-30
2023/08/28 06:25:23;;;;;;;13.93;4.77;;;16.50;99.90;;;;;;5050945;28;20325;-31
2023/08/28 06:27:51;;;;;;;10.93;4.63;;;16.50;99.90;;;;;;5076572;28;20566;-30
2023/08/28 06:30:19;;;;;;;9.70;3.90;;;16.60;99.90;;;;;;5053673;28;20206;-31
2023/08/28 06:32:51;;;;;;;5.90;3.50;;;16.60;99.90;;;;;;5042902;28;20200;-30
2023/08/28 06:35:18;;;;;;;7.40;3.53;;;16.60;99.90;;;;;;5045440;28;20228;-30
2023/08/28 06:37:50;;;;;;;4.38;3.30;;;16.70;99.90;;;;;;5066253;28;20722;-30
2023/08/28 06:40:17;;;;;;;6.50;3.80;;;16.70;99.90;;;;;;5053221;28;20301;-30
2023/08/28 06:42:44;;;;;;;5.30;3.70;;;16.80;99.90;;;;;;5046736;28;20220;-31
2023/08/28 06:45:12;;;;;;;8.73;3.60;;;16.80;99.90;;;;;;5030522;28;20240;-32
2023/08/28 06:47:39;;;;;;;8.40;3.93;;;16.90;99.90;;;;;;5047825;28;20232;-32
2023/08/28 06:50:09;;;;;;;8.90;4.00;;;16.90;99.90;;;;;;5061796;28;20256;-35
2023/08/28 06:52:39;;;;;;;9.73;4.40;;;16.90;99.90;;;;;;5047797;28;20236;-32
2023/08/28 06:55:11;;;;;;;5.10;3.43;;;17.00;99.90;;;;;;5036700;28;20234;-32
2023/08/28 06:57:41;;;;;;;8.13;4.30;;;17.00;99.90;;;;;;5062322;28;20199;-31
2023/08/28 07:00:10;;;;;;;9.37;3.90;;;17.10;99.90;;;;;;5049430;28;20695;-31
2023/08/28 07:02:38;;;;;;;6.47;3.40;;;17.10;99.90;;;;;;5029391;28;20205;-31
2023/08/28 07:05:05;;;;;;;6.40;3.87;;;17.20;99.90;;;;;;5046264;28;20234;-32
2023/08/28 07:07:35;;;;;;;6.28;3.63;;;17.20;99.90;;;;;;5059700;28;20310;-31
2023/08/28 07:10:04;;;;;;;8.77;3.90;;;17.30;99.90;;;;;;5057591;28;20208;-31
2023/08/28 07:12:36;;;;;;;6.30;3.33;;;17.30;99.90;;;;;;5031661;28;20212;-31
2023/08/28 07:15:28;;;;;;;6.50;3.90;;;17.40;99.90;;;;;;5044316;28;20223;-31
2023/08/28 07:17:55;;;;;;;6.63;3.40;;;17.50;99.90;;;;;;5008626;28;20634;-31
2023/08/28 07:20:25;;;;;;;5.50;3.53;;;17.50;99.90;;;;;;5029487;28;20204;-24
2023/08/28 07:22:57;;;;;;;6.73;3.93;;;17.60;99.90;;;;;;5045706;28;20207;-24
2023/08/28 07:25:25;;;;;;;9.25;3.67;;;17.60;99.90;;;;;;5053424;28;20254;-24
2023/08/28 07:27:54;;;;;;;10.73;4.43;;;17.70;99.90;;;;;;5022066;28;20204;-24
2023/08/28 07:30:24;;;;;;;10.15;4.03;;;17.80;99.90;;;;;;5057505;28;20663;-24
2023/08/28 07:32:51;;;;;;;9.32;3.90;;;17.80;99.90;;;;;;5064786;28;20609;-24
2023/08/28 07:35:23;;;;;;;12.20;4.10;;;17.90;99.90;;;;;;5032471;28;20216;-24
2023/08/28 07:37:53;;;;;;;7.90;3.80;;;18.00;99.90;;;;;;5046159;28;20219;-24
2023/08/28 07:40:26;;;;;;;9.17;4.43;;;18.10;99.90;;;;;;5102483;27;20967;-25
2023/08/28 07:42:53;;;;;;;5.13;3.87;;;18.20;99.90;;;;;;5101983;28;20252;-24
2023/08/28 07:45:23;;;;;;;5.93;3.80;;;18.20;99.90;;;;;;5103022;28;20690;-24
2023/08/28 07:47:52;;;;;;;10.50;5.22;;;18.30;99.90;;;;;;5099610;28;20286;-24
2023/08/28 07:50:19;;;;;;;5.87;4.80;;;18.30;99.90;;;;;;5098474;28;20255;-24
2023/08/28 07:52:49;;;;;;;6.83;4.00;;;18.40;99.90;;;;;;5100533;28;20263;-24
2023/08/28 07:55:18;;;;;;;5.30;3.70;;;18.50;99.90;;;;;;5093227;28;20202;-32
2023/08/28 07:57:46;;;;;;;5.83;3.97;;;18.50;99.90;;;;;;5102852;28;20198;-32
2023/08/28 08:00:20;;;;;;;7.03;4.53;;;18.60;99.90;;;;;;5100237;28;20735;-32
2023/08/28 08:02:52;;;;;;;9.77;4.53;;;18.70;99.90;;;;;;5100327;28;20198;-24
2023/08/28 08:05:24;;;;;;;9.63;4.40;;;18.70;99.90;;;;;;5102422;28;20229;-24
2023/08/28 08:07:56;;;;;;;7.43;4.13;;;18.80;99.90;;;;;;5100086;28;20614;-24
2023/08/28 08:10:23;;;;;;;7.78;4.40;;;18.90;99.90;;;;;;5103812;28;20214;-24
2023/08/28 08:12:53;;;;;;;7.97;4.20;;;18.90;99.90;;;;;;5096097;28;20206;-24
2023/08/28 08:15:22;;;;;;;9.70;4.30;;;19.00;99.90;;;;;;5098682;28;20247;-24
2023/08/28 08:17:52;;;;;;;7.30;4.05;;;19.10;99.90;;;;;;5091708;28;20587;-24
2023/08/28 08:20:22;;;;;;;7.10;3.53;;;19.20;99.90;;;;;;5095494;28;20227;-24
2023/08/28 08:22:52;;;;;;;6.53;3.55;;;19.20;99.90;;;;;;5102176;28;20785;-24
2023/08/28 08:25:26;;;;;;;6.13;3.90;;;19.30;99.90;;;;;;5101408;28;20198;-24
2023/08/28 08:27:53;;;;;;;7.00;4.47;;;19.40;99.90;;;;;;5103181;28;20317;-25
2023/08/28 08:30:23;;;;;;;5.93;3.78;;;19.50;99.90;;;;;;5101219;28;20206;-31
2023/08/28 08:32:52;;;;;;;5.82;3.75;;;19.50;99.90;;;;;;5101976;28;20764;-32
2023/08/28 08:35:22;;;;;;;5.22;3.55;;;19.60;99.90;;;;;;5098213;28;20214;-32
2023/08/28 08:37:52;;;;;;;6.57;4.20;;;19.60;99.90;;;;;;5102138;28;20241;-31
2023/08/28 08:40:24;;;;;;;6.75;4.30;;;19.70;99.90;;;;;;5102763;28;20245;-31
2023/08/28 08:42:53;;;;;;;4.55;3.92;;;19.70;99.90;;;;;;5100260;28;20206;-31
2023/08/28 08:45:30;;;;;;;4.47;3.42;;;19.80;99.90;;;;;;5097466;28;20305;-32
2023/08/28 08:48:02;;;;;;;4.15;3.67;;;19.90;99.90;;;;;;5109573;28;20199;-31
2023/08/28 08:50:37;;;;;;;4.65;4.10;;;19.90;99.90;;;;;;5082077;28;20210;-32
2023/08/28 08:53:17;;;;;;;6.43;3.92;;;19.90;99.90;;;;;;5090525;28;20287;-32
2023/08/28 08:55:54;;;;;;;6.13;3.53;;;20.00;99.90;;;;;;5087406;28;20667;-31
2023/08/28 08:58:21;;;;;;;5.90;4.15;;;20.00;99.90;;;;;;5087883;28;20230;-32
2023/08/28 09:00:51;;;;;;;5.90;4.18;;;20.00;99.90;;;;;;5069758;28;20187;-31
2023/08/28 09:03:22;;;;;;;5.80;4.18;;;20.10;99.90;;;;;;5087776;28;20219;-32
2023/08/28 09:05:50;;;;;;;4.68;4.10;;;20.10;99.90;;;;;;5074956;28;20209;-32
2023/08/28 09:08:24;;;;;;;9.18;4.03;;;20.10;99.90;;;;;;5086714;28;20203;-32
2023/08/28 09:10:57;;;;;;;5.20;3.17;;;20.10;99.90;;;;;;5071234;28;20294;-32
2023/08/28 09:13:24;;;;;;;3.42;2.90;;;20.20;99.90;;;;;;5084820;28;20234;-32
2023/08/28 09:15:51;;;;;;;4.90;2.60;;;20.30;99.90;;;;;;5083692;28;20207;-32
2023/08/28 09:18:21;;;;;;;6.28;2.97;;;20.30;99.90;;;;;;5085872;28;20213;-31
2023/08/28 09:21:08;;;;;;;4.07;2.83;;;20.30;99.90;;;;;;5079035;28;20223;-31
2023/08/28 09:23:48;;;;;;;3.45;2.25;;;20.40;99.90;;;;;;5068509;28;20257;-32
2023/08/28 09:26:21;;;;;;;5.35;2.50;;;20.40;99.90;;;;;;5085751;28;20221;-32
2023/08/28 09:29:03;;;;;;;5.78;2.65;;;20.40;99.90;;;;;;5082819;28;20210;-31
2023/08/28 09:31:39;;;;;;;6.00;2.58;;;20.40;99.90;;;;;;5074862;28;20236;-31
2023/08/28 09:34:07;;;;;;;4.28;2.70;;;20.40;99.90;;;;;;5079227;28;20230;-31
2023/08/28 09:36:40;;;;;;;4.00;2.40;;;20.40;99.90;;;;;;5096340;28;20261;-31
2023/08/28 09:39:14;;;;;;;6.95;2.83;;;20.40;99.90;;;;;;5087103;28;20355;-31
2023/08/28 09:41:41;;;;;;;3.70;2.15;;;20.40;99.90;;;;;;5086762;28;20207;-31
2023/08/28 09:44:09;;;;;;;3.53;2.00;;;20.40;99.90;;;;;;5087624;28;20199;-31
2023/08/28 09:46:37;;;;;;;2.70;2.00;;;20.40;99.90;;;;;;5083988;28;20209;-31
2023/08/28 09:49:09;;;;;;;2.97;1.85;;;20.40;99.90;;;;;;5086623;28;20206;-31
2023/08/28 09:51:49;;;;;;;5.63;2.33;;;20.40;99.90;;;;;;5083180;28;20249;-31
2023/08/28 09:54:27;;;;;;;3.42;2.20;;;20.50;99.90;;;;;;5087690;28;20617;-31
2023/08/28 09:56:54;;;;;;;4.93;2.30;;;20.50;99.90;;;;;;5083045;28;20216;-31
2023/08/28 09:59:21;;;;;;;5.20;2.20;;;20.60;99.90;;;;;;5075957;28;20320;-31
2023/08/28 10:01:50;;;;;;;4.35;2.08;;;20.60;99.90;;;;;;5085304;28;20213;-31
2023/08/28 10:04:22;;;;;;;5.68;2.05;;;20.70;99.90;;;;;;5086383;28;20212;-31
2023/08/28 10:06:53;;;;;;;2.97;1.88;;;20.70;99.90;;;;;;5085849;28;20676;-31
2023/08/28 10:09:22;;;;;;;3.05;1.80;;;20.80;99.90;;;;;;5087095;28;20209;-31
2023/08/28 10:11:52;;;;;;;2.65;1.60;;;20.90;99.90;;;;;;5086388;28;20206;-31
2023/08/28 10:14:22;;;;;;;1.95;1.30;;;20.90;99.90;;;;;;5086407;28;20286;-33
2023/08/28 10:17:06;;;;;;;3.08;1.20;;;20.90;99.90;;;;;;5079447;28;20211;-32
2023/08/28 10:19:54;;;;;;;1.33;1.20;;;20.90;99.90;;;;;;5083943;28;20219;-33
2023/08/28 10:22:23;;;;;;;2.97;1.27;;;21.00;99.90;;;;;;5085326;28;20215;-32
2023/08/28 10:24:52;;;;;;;2.78;1.33;;;21.00;99.90;;;;;;5086412;28;20308;-33
2023/08/28 10:27:25;;;;;;;2.53;1.30;;;21.00;99.90;;;;;;5079104;28;20195;-33
2023/08/28 10:29:54;;;;;;;1.52;1.05;;;21.00;99.90;;;;;;5086380;28;20632;-33
2023/08/28 10:32:25;;;;;;;3.60;1.75;;;21.10;99.90;;;;;;5084532;28;20214;-33
2023/08/28 10:34:54;;;;;;;3.13;1.70;;;21.10;99.90;;;;;;5086395;28;20233;-33
2023/08/28 10:37:24;;;;;;;3.10;1.75;;;21.10;99.90;;;;;;5084000;28;20202;-34
2023/08/28 10:40:03;;;;;;;4.40;1.60;;;21.10;99.90;;;;;;5084915;28;20333;-32
2023/08/28 10:42:31;;;;;;;2.42;1.42;;;21.20;99.90;;;;;;5086542;28;20206;-33
2023/08/28 10:44:59;;;;;;;1.27;1.10;;;21.20;99.90;;;;;;5086698;28;20198;-33
2023/08/28 10:47:29;;;;;;;2.03;1.17;;;21.20;99.90;;;;;;5084357;28;20206;-33
2023/08/28 10:49:56;;;;;;;1.75;1.00;;;21.20;99.90;;;;;;5080648;28;20688;-33
2023/08/28 10:52:28;;;;;;;1.90;1.00;;;21.20;99.90;;;;;;5084262;28;20203;-32
2023/08/28 10:55:07;;;;;;;2.65;1.40;;;21.10;99.90;;;;;;5087012;28;20234;-33
2023/08/28 10:57:40;;;;;;;2.05;1.15;;;21.10;99.90;;;;;;5085950;28;20206;-33
2023/08/28 11:00:21;;;;;;;3.97;1.55;;;21.10;99.90;;;;;;5088106;28;20214;-32
2023/08/28 11:03:07;;;;;;;3.80;1.60;;;21.00;99.90;;;;;;5084389;28;20203;-32
2023/08/28 11:05:39;;;;;;;2.88;1.60;;;21.00;99.90;;;;;;5086600;28;20305;-33
2023/08/28 11:08:11;;;;;;;2.22;1.40;;;21.00;99.90;;;;;;5082192;28;20694;-33
2023/08/28 11:10:45;;;;;;;1.67;1.23;;;21.00;99.90;;;;;;5086118;28;20242;-35
2023/08/28 11:13:24;;;;;;;3.65;1.63;;;21.00;99.90;;;;;;5083166;28;20622;-33
2023/08/28 11:16:03;;;;;;;5.95;3.10;;;21.10;99.90;;;;;;5085726;28;20201;-33
2023/08/28 11:18:40;;;;;;;4.50;1.77;;;21.10;99.90;;;;;;5084063;28;20207;-33
2023/08/28 11:21:10;;;;;;;9.65;4.50;;;21.10;99.90;;;;;;5083801;28;20224;-33
2023/08/28 11:23:42;;;;;;;13.95;6.53;;;21.10;99.90;;;;;;5077797;28;20207;-33
2023/08/28 11:26:16;;;;;;;4.40;2.97;;;21.20;99.90;;;;;;5081925;28;20306;-34
2023/08/28 11:28:48;;;;;;;4.10;2.00;;;21.30;99.90;;;;;;5076590;28;20198;-33
2023/08/28 11:31:28;;;;;;;4.95;2.60;;;21.20;99.90;;;;;;5080054;28;20211;-33
2023/08/28 11:33:55;;;;;;;3.42;1.67;;;21.30;99.90;;;;;;5080933;28;20242;-32
2023/08/28 11:36:24;;;;;;;1.60;1.50;;;21.30;99.90;;;;;;5085967;28;20259;-32
2023/08/28 11:38:59;;;;;;;3.17;1.92;;;21.40;99.90;;;;;;5085736;28;20238;-33
2023/08/28 11:41:28;;;;;;;2.80;1.58;;;21.40;99.90;;;;;;5077805;28;20681;-32
2023/08/28 11:43:55;;;;;;;2.35;1.73;;;21.40;99.90;;;;;;5084282;28;20703;-32
2023/08/28 11:46:27;;;;;;;2.08;1.52;;;21.40;99.90;;;;;;5086103;28;20280;-33
2023/08/28 11:48:57;;;;;;;4.05;1.65;;;21.40;99.90;;;;;;5084160;28;20199;-33
2023/08/28 11:51:27;;;;;;;2.92;1.80;;;21.50;99.90;;;;;;5084369;28;20276;-32
2023/08/28 11:53:58;;;;;;;4.97;1.35;;;21.50;99.90;;;;;;5079896;28;20202;-32
2023/08/28 11:56:25;;;;;;;2.88;1.40;;;21.50;99.90;;;;;;5071747;28;20228;-33
2023/08/28 11:58:55;;;;;;;3.25;1.50;;;21.50;99.90;;;;;;5085935;28;20219;-34
2023/08/28 12:01:30;;;;;;;2.58;1.30;;;21.50;99.90;;;;;;5084563;28;20325;-36
2023/08/28 12:04:06;;;;;;;4.05;1.40;;;21.50;99.90;;;;;;5079462;28;20263;-33
2023/08/28 12:06:39;;;;;;;3.00;1.60;;;21.50;99.90;;;;;;5085418;28;20737;-33
2023/08/28 12:09:12;;;;;;;1.83;1.35;;;21.50;99.90;;;;;;5082220;28;20253;-32
2023/08/28 12:11:41;;;;;;;2.53;1.63;;;21.50;99.90;;;;;;5077019;28;20231;-33
2023/08/28 12:14:17;;;;;;;4.03;2.03;;;21.50;99.90;;;;;;5058141;28;20223;-33
2023/08/28 12:16:44;;;;;;;2.63;1.55;;;21.60;99.90;;;;;;5067167;28;20269;-33
2023/08/28 12:19:21;;;;;;;2.15;1.33;;;21.60;99.90;;;;;;5087660;28;20217;-33
2023/08/28 12:21:49;;;;;;;5.45;1.73;;;21.70;99.90;;;;;;5085982;28;20206;-33
2023/08/28 12:24:16;;;;;;;1.75;1.38;;;21.80;99.90;;;;;;5080597;28;20704;-33
2023/08/28 12:26:46;;;;;;;3.08;1.60;;;21.80;99.90;;;;;;5074210;28;20260;-33
2023/08/28 12:29:13;;;;;;;1.63;1.15;;;21.90;99.90;;;;;;5080643;28;20249;-33
2023/08/28 12:31:40;;;;;;;1.90;1.30;;;21.90;99.90;;;;;;5094835;28;20264;-33
2023/08/28 12:34:09;;;;;;;2.55;1.65;;;22.00;99.90;;;;;;5091776;28;20219;-34
2023/08/28 12:36:43;;;;;;;1.88;1.40;;;22.00;99.90;;;;;;5103771;28;20231;-33
2023/08/28 12:39:16;;;;;;;4.45;1.70;;;22.00;99.90;;;;;;5086028;28;20716;-33
2023/08/28 12:41:51;;;;;;;3.25;1.67;;;22.10;99.90;;;;;;5085521;28;20199;-32
2023/08/28 12:44:22;;;;;;;2.80;1.70;;;22.20;99.90;;;;;;5083320;28;20210;-33
2023/08/28 12:46:53;;;;;;;1.80;1.48;;;22.20;99.90;;;;;;5087945;28;20644;-33
2023/08/28 12:49:23;;;;;;;2.00;1.80;;;22.20;99.90;;;;;;5080222;28;20673;-32
2023/08/28 12:51:55;;;;;;;1.50;1.40;;;22.30;99.90;;;;;;5064891;28;20195;-33
2023/08/28 12:54:22;;;;;;;2.70;1.60;;;22.30;99.90;;;;;;5099087;27;20218;-32
2023/08/28 12:56:50;;;;;;;2.35;1.92;;;22.30;99.90;;;;;;5082720;28;20183;-34
2023/08/28 12:59:23;;;;;;;2.30;1.63;;;22.30;99.90;;;;;;5077569;28;20222;-33
2023/08/28 13:01:53;;;;;;;1.40;1.25;;;22.30;99.90;;;;;;5072113;28;20207;-31
2023/08/28 13:04:24;;;;;;;1.67;1.42;;;22.30;99.90;;;;;;5066496;28;20226;-31